Etusivu
METAR-TAF:

METAR-TAF

Lentoasemat :

Røst, Norja

Leveyspiiri: 67-31N, Pituuspiiri: 012-06E, korkeus merenpinnasta: 4 m

Tämänhetkinen sää

Tämä raportti tehtiin 9 tuntia ja 28 minuuttia sitten, kello 18.50 UTC
Tuuli 28 kn pohjoisesta/koillisesta
Lämpötila 0°C
Kosteus 93%
Ilmanpaine 1006 hPa
Näkyvyys: 3000 m
heikkoja lumikuuroja, pikkurakeita tai lumirakeita

METAR: ENRS 251850Z 03028KT 3000 -SHSNGS VV015 00/M01 Q1006

Aika: 05:18 (04:18 UTC)


TAF: puuttuu

Säähavainnot ja -ennusteet yli 4000 lentoasemalta (METAR- ja TAF-raportit).

Käytössä olevat sääasemat on merkitty karttaan keltaisilla ja punaisilla pisteillä.

Aseta hiiri pisteen päälle nähdäksesi sääaseman nimen.

Klikkaa sitten nähdäksesi säähavainnot ja -ennusteet.

Kartan vaihtaminen: klikkaa mustalla rastilla varustettuja vihreitä pisteitä, niin voit zoomata sisään; viivalla varustettua vihreää pistettä, niin voit zoomata ulos tai vihreitä nuolia, niin pääset viereisille kartoille.


METAR-TAF: